Time;durP1;ratioP1;P1;durP2;ratioP2;P2;SDS_P1;SDS_P2;PMS_P1;PMS_P2;Temp;Humidity;BMP_temperature;BMP_pressure;BME280_temperature;BME280_humidity;BME280_pressure;Samples;Min_cycle;Max_cycle;Signal;HPM_P1;HPM_P2
2021/06/15 00:00:33;;;;;;;0.10;0.10;;;;;;;;;;5073712;28;20047;-83
2021/06/15 00:02:59;;;;;;;0.10;0.10;;;;;;;;;;5073416;28;20287;-84
2021/06/15 00:05:26;;;;;;;0.10;0.10;;;;;;;;;;5073358;28;20047;-83
2021/06/15 00:07:52;;;;;;;0.10;0.10;;;;;;;;;;5074516;28;20044;-83
2021/06/15 00:10:21;;;;;;;0.10;0.10;;;;;;;;;;5056626;28;20512;-83
2021/06/15 00:12:47;;;;;;;0.10;0.10;;;;;;;;;;5073214;28;20044;-82
2021/06/15 00:15:14;;;;;;;0.10;0.10;;;;;;;;;;5074355;28;20549;-83
2021/06/15 00:17:40;;;;;;;0.10;0.10;;;;;;;;;;5056546;28;20048;-83
2021/06/15 00:20:07;;;;;;;0.10;0.10;;;;;;;;;;5073123;28;20504;-82
2021/06/15 00:22:33;;;;;;;0.10;0.10;;;;;;;;;;5056765;28;20234;-83
2021/06/15 00:25:11;;;;;;;0.10;0.10;;;;;;;;;;5058224;28;20090;-83
2021/06/15 00:27:37;;;;;;;0.10;0.10;;;;;;;;;;5072877;28;20051;-83
2021/06/15 00:30:06;;;;;;;0.10;0.10;;;;;;;;;;5074149;28;20048;-83
2021/06/15 00:32:40;;;;;;;0.10;0.10;;;;;;;;;;5073097;28;20105;-82
2021/06/15 00:35:19;;;;;;;0.10;0.10;;;;;;;;;;5073020;28;20044;-83
2021/06/15 00:37:45;;;;;;;0.10;0.10;;;;;;;;;;5056032;28;20041;-83
2021/06/15 00:40:11;;;;;;;0.10;0.10;;;;;;;;;;5072918;28;20189;-83
2021/06/15 00:42:38;;;;;;;0.10;0.10;;;;;;;;;;5073918;28;20048;-82
2021/06/15 00:45:07;;;;;;;0.10;0.10;;;;;;;;;;5072839;28;20049;-83
2021/06/15 00:47:33;;;;;;;0.10;0.10;;;;;;;;;;5056136;28;20402;-83
2021/06/15 00:49:59;;;;;;;0.10;0.10;;;;;;;;;;5073732;28;20032;-83
2021/06/15 00:52:25;;;;;;;0.10;0.10;;;;;;;;;;5072417;28;20051;-83
2021/06/15 00:54:51;;;;;;;0.10;0.10;;;;;;;;;;5073675;28;20048;-83
2021/06/15 00:57:18;;;;;;;0.10;0.10;;;;;;;;;;5072291;28;20109;-83
2021/06/15 00:59:44;;;;;;;0.10;0.10;;;;;;;;;;5073481;28;20529;-83
2021/06/15 01:02:10;;;;;;;0.10;0.10;;;;;;;;;;5073371;28;20047;-83
2021/06/15 01:04:36;;;;;;;0.10;0.10;;;;;;;;;;5073523;28;20028;-83
2021/06/15 01:07:08;;;;;;;0.03;0.03;;;;;;;;;;5071990;28;20098;-83
2021/06/15 01:09:35;;;;;;;;;;;;;;;;;;5074005;28;20045;-83
2021/06/15 01:12:07;;;;;;;0.10;0.10;;;;;;;;;;5073318;28;19920;-83
2021/06/15 01:14:33;;;;;;;;;;;;;;;;;;5073584;28;20039;-83
2021/06/15 01:17:05;;;;;;;0.10;0.10;;;;;;;;;;5073163;28;19917;-83
2021/06/15 01:19:37;;;;;;;0.10;0.10;;;;;;;;;;5073047;28;20037;-83
2021/06/15 01:22:14;;;;;;;0.10;0.10;;;;;;;;;;5071941;28;20478;-82
2021/06/15 01:24:43;;;;;;;0.10;0.10;;;;;;;;;;5055560;28;20036;-83
2021/06/15 01:27:28;;;;;;;0.10;0.10;;;;;;;;;;5073073;28;20063;-83
2021/06/15 01:29:54;;;;;;;0.10;0.10;;;;;;;;;;5072671;28;20498;-83
2021/06/15 01:32:22;;;;;;;0.10;0.10;;;;;;;;;;5071714;28;20041;-83
2021/06/15 01:34:48;;;;;;;0.10;0.10;;;;;;;;;;5072835;28;20072;-83
2021/06/15 01:37:16;;;;;;;0.10;0.10;;;;;;;;;;5071616;28;20063;-83
2021/06/15 01:39:43;;;;;;;0.10;0.10;;;;;;;;;;5071541;28;20036;-83
2021/06/15 01:42:18;;;;;;;0.10;0.10;;;;;;;;;;5072807;28;20493;-83
2021/06/15 01:44:50;;;;;;;0.10;0.10;;;;;;;;;;5071318;28;20478;-83
2021/06/15 01:47:17;;;;;;;;;;;;;;;;;;5071852;28;20040;-83
2021/06/15 01:49:53;;;;;;;0.10;0.10;;;;;;;;;;5071316;28;20423;-83
2021/06/15 01:52:19;;;;;;;0.10;0.10;;;;;;;;;;5071342;28;20040;-83
2021/06/15 01:54:47;;;;;;;0.10;0.10;;;;;;;;;;5071183;28;20055;-83
2021/06/15 01:57:13;;;;;;;0.10;0.10;;;;;;;;;;5071186;28;20115;-83
2021/06/15 01:59:41;;;;;;;0.10;0.10;;;;;;;;;;5072563;28;20086;-82
2021/06/15 02:02:07;;;;;;;0.10;0.10;;;;;;;;;;5071403;28;20106;-83
2021/06/15 02:04:35;;;;;;;0.10;0.10;;;;;;;;;;5072349;28;20037;-83
2021/06/15 02:07:01;;;;;;;0.10;0.10;;;;;;;;;;5072231;28;20078;-82
2021/06/15 02:09:27;;;;;;;0.10;0.10;;;;;;;;;;5071053;28;20040;-83
2021/06/15 02:11:55;;;;;;;0.10;0.10;;;;;;;;;;5070547;28;20052;-83
2021/06/15 02:14:41;;;;;;;0.10;0.10;;;;;;;;;;5057859;28;20135;-83
2021/06/15 02:17:07;;;;;;;0.10;0.10;;;;;;;;;;5072177;28;20093;-83
2021/06/15 02:19:34;;;;;;;0.10;0.10;;;;;;;;;;5071056;28;20128;-83
2021/06/15 02:22:10;;;;;;;0.10;0.10;;;;;;;;;;5070891;28;20064;-83
2021/06/15 02:24:56;;;;;;;0.10;0.10;;;;;;;;;;5057545;28;20135;-82
2021/06/15 02:27:42;;;;;;;0.10;0.10;;;;;;;;;;5058195;28;20049;-83
2021/06/15 02:30:08;;;;;;;0.10;0.10;;;;;;;;;;5072500;28;20052;-82
2021/06/15 02:32:35;;;;;;;0.10;0.10;;;;;;;;;;5071227;28;20040;-84
2021/06/15 02:35:02;;;;;;;0.10;0.10;;;;;;;;;;5071078;28;20036;-83
2021/06/15 02:37:30;;;;;;;0.10;0.10;;;;;;;;;;5072316;28;20051;-83
2021/06/15 02:39:56;;;;;;;0.10;0.10;;;;;;;;;;5071069;28;20032;-83
2021/06/15 02:42:23;;;;;;;0.10;0.10;;;;;;;;;;5071025;28;20043;-83
2021/06/15 02:44:50;;;;;;;0.10;0.10;;;;;;;;;;5054255;28;20102;-83
2021/06/15 02:47:16;;;;;;;0.10;0.10;;;;;;;;;;5054266;28;20048;-82
2021/06/15 02:49:43;;;;;;;0.10;0.10;;;;;;;;;;5071522;28;20098;-83
2021/06/15 02:52:32;;;;;;;0.10;0.10;;;;;;;;;;5072235;28;20033;-83
2021/06/15 02:54:59;;;;;;;0.10;0.10;;;;;;;;;;5071919;28;20079;-83
2021/06/15 02:57:26;;;;;;;0.10;0.10;;;;;;;;;;5071123;28;20038;-83
2021/06/15 02:59:53;;;;;;;0.10;0.10;;;;;;;;;;5072750;28;20064;-84
2021/06/15 03:02:19;;;;;;;0.10;0.10;;;;;;;;;;5072138;28;20036;-83
2021/06/15 03:04:46;;;;;;;0.10;0.10;;;;;;;;;;5070596;28;20059;-83
2021/06/15 03:07:12;;;;;;;0.10;0.10;;;;;;;;;;5071733;28;20494;-83
2021/06/15 03:09:38;;;;;;;0.10;0.10;;;;;;;;;;5070401;28;20043;-83
2021/06/15 03:12:05;;;;;;;0.10;0.10;;;;;;;;;;5070331;28;20485;-83
2021/06/15 03:14:31;;;;;;;0.10;0.10;;;;;;;;;;5071574;28;20032;-82
2021/06/15 03:16:58;;;;;;;0.10;0.10;;;;;;;;;;5070332;28;20063;-82
2021/06/15 03:19:25;;;;;;;0.10;0.10;;;;;;;;;;5070429;28;20051;-83
2021/06/15 03:21:55;;;;;;;0.10;0.10;;;;;;;;;;5071556;28;20082;-82
2021/06/15 03:24:22;;;;;;;0.10;0.10;;;;;;;;;;5072533;28;20378;-83
2021/06/15 03:26:50;;;;;;;0.10;0.10;;;;;;;;;;5073875;28;20041;-82
2021/06/15 03:29:37;;;;;;;0.10;0.10;;;;;;;;;;5046386;28;20486;-83
2021/06/15 03:32:23;;;;;;;0.10;0.10;;;;;;;;;;5046874;28;20054;-83
2021/06/15 03:34:52;;;;;;;0.10;0.10;;;;;;;;;;5075115;28;20032;-83
2021/06/15 03:37:22;;;;;;;0.10;0.10;;;;;;;;;;5073899;28;20043;-83
2021/06/15 03:39:48;;;;;;;0.10;0.10;;;;;;;;;;5074003;28;20067;-83
2021/06/15 03:42:19;;;;;;;0.10;0.10;;;;;;;;;;5057375;28;20402;-83
2021/06/15 03:44:45;;;;;;;0.10;0.10;;;;;;;;;;5075152;28;20086;-83
2021/06/15 03:47:11;;;;;;;0.10;0.10;;;;;;;;;;5057066;28;20036;-83
2021/06/15 03:49:37;;;;;;;0.10;0.10;;;;;;;;;;5057012;28;20128;-83
2021/06/15 03:52:04;;;;;;;0.10;0.10;;;;;;;;;;5073636;28;20068;-83
2021/06/15 03:54:30;;;;;;;0.10;0.10;;;;;;;;;;5073613;28;20036;-83
2021/06/15 03:56:56;;;;;;;0.10;0.10;;;;;;;;;;5056976;28;20115;-83
2021/06/15 03:59:23;;;;;;;0.10;0.10;;;;;;;;;;5073443;28;20040;-83
2021/06/15 04:01:51;;;;;;;0.10;0.10;;;;;;;;;;5057183;28;20040;-83
2021/06/15 04:04:17;;;;;;;0.10;0.10;;;;;;;;;;5057181;28;20044;-83
2021/06/15 04:06:50;;;;;;;0.10;0.10;;;;;;;;;;5073275;28;20051;-83
2021/06/15 04:09:16;;;;;;;0.10;0.10;;;;;;;;;;5073609;28;20060;-84
2021/06/15 04:11:42;;;;;;;0.10;0.10;;;;;;;;;;5074453;28;20032;-83
2021/06/15 04:14:10;;;;;;;0.10;0.10;;;;;;;;;;5073303;28;20477;-83
2021/06/15 04:16:37;;;;;;;0.10;0.10;;;;;;;;;;5073087;28;20044;-83
2021/06/15 04:19:03;;;;;;;0.10;0.10;;;;;;;;;;5073193;28;20072;-83
2021/06/15 04:21:29;;;;;;;0.10;0.10;;;;;;;;;;5073195;28;20093;-83
2021/06/15 04:24:01;;;;;;;0.10;0.10;;;;;;;;;;5073152;28;20041;-83
2021/06/15 04:26:27;;;;;;;0.10;0.10;;;;;;;;;;5072934;28;20051;-83
2021/06/15 04:28:53;;;;;;;0.10;0.10;;;;;;;;;;5074166;28;20044;-83
2021/06/15 04:31:20;;;;;;;0.10;0.10;;;;;;;;;;5074004;28;20052;-83
2021/06/15 04:33:48;;;;;;;0.10;0.10;;;;;;;;;;5074296;28;20075;-83
2021/06/15 04:36:16;;;;;;;0.10;0.10;;;;;;;;;;5072141;28;20040;-83
2021/06/15 04:39:04;;;;;;;0.10;0.10;;;;;;;;;;5059454;28;20054;-83
2021/06/15 04:41:31;;;;;;;0.10;0.10;;;;;;;;;;5056135;28;20047;-83
2021/06/15 04:43:57;;;;;;;0.10;0.10;;;;;;;;;;5056260;28;20474;-83
2021/06/15 04:46:26;;;;;;;0.10;0.10;;;;;;;;;;5072541;28;20482;-83
2021/06/15 04:49:13;;;;;;;0.10;0.10;;;;;;;;;;5072681;28;20093;-83
2021/06/15 04:51:40;;;;;;;0.10;0.10;;;;;;;;;;5056044;28;20087;-83
2021/06/15 04:54:06;;;;;;;0.10;0.10;;;;;;;;;;5072403;28;20402;-83
2021/06/15 04:56:32;;;;;;;0.10;0.10;;;;;;;;;;5055744;28;20060;-83
2021/06/15 04:59:00;;;;;;;0.10;0.10;;;;;;;;;;5055977;28;20040;-83
2021/06/15 05:01:26;;;;;;;0.10;0.10;;;;;;;;;;5072394;28;20132;-83
2021/06/15 05:03:55;;;;;;;0.10;0.10;;;;;;;;;;5072334;28;20040;-83
2021/06/15 05:06:22;;;;;;;0.10;0.10;;;;;;;;;;5073455;28;20037;-83
2021/06/15 05:08:51;;;;;;;0.10;0.10;;;;;;;;;;5073286;28;20070;-83
2021/06/15 05:11:21;;;;;;;0.10;0.10;;;;;;;;;;5072407;28;20036;-83
2021/06/15 05:13:57;;;;;;;0.10;0.10;;;;;;;;;;5072257;28;20036;-83
2021/06/15 05:16:37;;;;;;;0.10;0.10;;;;;;;;;;5073193;28;20481;-83
2021/06/15 05:19:03;;;;;;;0.10;0.10;;;;;;;;;;5071909;28;20040;-83
2021/06/15 05:21:40;;;;;;;0.10;0.10;;;;;;;;;;5073042;28;20058;-83
2021/06/15 05:24:11;;;;;;;0.10;0.10;;;;;;;;;;5071936;28;20036;-83
2021/06/15 05:26:37;;;;;;;0.10;0.10;;;;;;;;;;5072936;28;20086;-83
2021/06/15 05:29:03;;;;;;;0.10;0.10;;;;;;;;;;5072973;28;20045;-83
2021/06/15 05:31:29;;;;;;;0.10;0.10;;;;;;;;;;5071525;28;20056;-83
2021/06/15 05:33:55;;;;;;;0.10;0.10;;;;;;;;;;5055217;28;20085;-83
2021/06/15 05:36:21;;;;;;;0.10;0.10;;;;;;;;;;5072902;28;20040;-83
2021/06/15 05:38:47;;;;;;;0.40;0.40;;;;;;;;;;5072726;28;20482;-83
2021/06/15 05:41:13;;;;;;;0.10;0.10;;;;;;;;;;5072856;28;20037;-83
2021/06/15 05:43:39;;;;;;;0.10;0.10;;;;;;;;;;5072787;28;20040;-83
2021/06/15 05:46:05;;;;;;;0.10;0.10;;;;;;;;;;5054728;28;20126;-83
2021/06/15 05:48:31;;;;;;;0.10;0.10;;;;;;;;;;5053878;28;20044;-83
2021/06/15 05:50:57;;;;;;;0.10;0.10;;;;;;;;;;5071448;28;20051;-83
2021/06/15 05:53:23;;;;;;;0.10;0.10;;;;;;;;;;5055041;28;20043;-82
2021/06/15 05:55:49;;;;;;;0.10;0.10;;;;;;;;;;5072491;28;20037;-83
2021/06/15 05:58:15;;;;;;;4.47;0.73;;;;;;;;;;5072394;28;20094;-83
2021/06/15 06:00:42;;;;;;;0.10;0.10;;;;;;;;;;5071215;28;20037;-83
2021/06/15 06:03:08;;;;;;;0.10;0.10;;;;;;;;;;5072386;28;20115;-83
2021/06/15 06:08:21;;;;;;;0.10;0.10;;;;;;;;;;5072314;28;20051;-84
2021/06/15 06:10:47;;;;;;;0.10;0.10;;;;;;;;;;5071196;28;20044;-84
2021/06/15 06:13:13;;;;;;;0.10;0.10;;;;;;;;;;5072179;28;20401;-83
2021/06/15 06:15:40;;;;;;;0.10;0.10;;;;;;;;;;5071081;28;20036;-83
2021/06/15 06:18:08;;;;;;;0.10;0.10;;;;;;;;;;5070970;28;20432;-84
2021/06/15 06:20:34;;;;;;;0.10;0.10;;;;;;;;;;5071004;28;20466;-83
2021/06/15 06:23:05;;;;;;;0.10;0.10;;;;;;;;;;5055232;28;20036;-84
2021/06/15 06:25:31;;;;;;;0.10;0.10;;;;;;;;;;5072026;28;20033;-84
2021/06/15 06:27:57;;;;;;;0.10;0.10;;;;;;;;;;5070857;28;20086;-84
2021/06/15 06:30:25;;;;;;;0.15;0.15;;;;;;;;;;5070699;28;20476;-84
2021/06/15 06:32:51;;;;;;;0.10;0.10;;;;;;;;;;5072046;28;20051;-84
2021/06/15 06:35:17;;;;;;;0.10;0.10;;;;;;;;;;5070841;28;20115;-84
2021/06/15 06:37:43;;;;;;;0.10;0.10;;;;;;;;;;5054137;28;20044;-84
2021/06/15 06:40:10;;;;;;;0.10;0.10;;;;;;;;;;5072034;28;20115;-84
2021/06/15 06:42:36;;;;;;;0.10;0.10;;;;;;;;;;5054078;28;20086;-84
2021/06/15 06:45:02;;;;;;;0.10;0.10;;;;;;;;;;5071894;28;20036;-83
2021/06/15 06:47:28;;;;;;;0.10;0.10;;;;;;;;;;5070834;28;20505;-84
2021/06/15 06:49:54;;;;;;;0.20;0.20;;;;;;;;;;5070971;28;20074;-84
2021/06/15 06:52:20;;;;;;;0.10;0.10;;;;;;;;;;5071883;28;20417;-84
2021/06/15 06:54:46;;;;;;;0.10;0.10;;;;;;;;;;5071834;28;20036;-84
2021/06/15 06:57:12;;;;;;;0.10;0.10;;;;;;;;;;5071657;28;20035;-84
2021/06/15 06:59:38;;;;;;;0.10;0.10;;;;;;;;;;5074710;28;20462;-84
2021/06/15 07:02:04;;;;;;;0.10;0.10;;;;;;;;;;5075787;28;20044;-84
2021/06/15 07:04:30;;;;;;;0.10;0.10;;;;;;;;;;5058007;28;20041;-84
2021/06/15 07:06:58;;;;;;;0.10;0.10;;;;;;;;;;5075733;28;20036;-84
2021/06/15 07:09:24;;;;;;;0.20;0.20;;;;;;;;;;5074455;28;20040;-85
2021/06/15 07:11:50;;;;;;;0.10;0.10;;;;;;;;;;5074489;28;20144;-84
2021/06/15 07:14:16;;;;;;;0.10;0.10;;;;;;;;;;5075624;28;20120;-84
2021/06/15 07:16:42;;;;;;;0.10;0.10;;;;;;;;;;5075461;28;20044;-84
2021/06/15 07:19:09;;;;;;;0.10;0.10;;;;;;;;;;5074309;28;20036;-85
2021/06/15 07:21:35;;;;;;;0.10;0.10;;;;;;;;;;5074291;28;20075;-84
2021/06/15 07:24:04;;;;;;;0.10;0.10;;;;;;;;;;5075313;28;20509;-84
2021/06/15 07:26:30;;;;;;;0.10;0.10;;;;;;;;;;5074183;28;20044;-84
2021/06/15 07:29:16;;;;;;;0.20;0.20;;;;;;;;;;5060448;28;20048;-84
2021/06/15 07:32:03;;;;;;;0.10;0.10;;;;;;;;;;5060709;28;20135;-84
2021/06/15 07:34:49;;;;;;;0.20;0.20;;;;;;;;;;5060476;28;20136;-84
2021/06/15 07:37:35;;;;;;;0.20;0.20;;;;;;;;;;5074079;28;20040;-84
2021/06/15 07:40:24;;;;;;;0.20;0.20;;;;;;;;;;5060517;28;20080;-84
2021/06/15 07:42:52;;;;;;;0.20;0.20;;;;;;;;;;5073785;28;20040;-84
2021/06/15 07:45:39;;;;;;;2.30;0.95;;;;;;;;;;5060251;28;20139;-84
2021/06/15 07:48:25;;;;;;;0.20;0.20;;;;;;;;;;5074163;28;20094;-84
2021/06/15 07:51:12;;;;;;;0.10;0.10;;;;;;;;;;5060370;28;20105;-84
2021/06/15 07:53:38;;;;;;;0.20;0.20;;;;;;;;;;5073741;28;20044;-84
2021/06/15 07:56:24;;;;;;;0.20;0.20;;;;;;;;;;5060202;28;20316;-84
2021/06/15 07:59:10;;;;;;;0.20;0.20;;;;;;;;;;5060232;28;20056;-84
2021/06/15 08:01:56;;;;;;;0.10;0.10;;;;;;;;;;5060193;28;20052;-84
2021/06/15 08:04:23;;;;;;;0.20;0.20;;;;;;;;;;5074664;28;20042;-85
2021/06/15 08:07:09;;;;;;;0.20;0.20;;;;;;;;;;5073869;28;20048;-85
2021/06/15 08:09:35;;;;;;;0.20;0.20;;;;;;;;;;5074184;28;20033;-84
2021/06/15 08:12:09;;;;;;;0.20;0.20;;;;;;;;;;5074238;28;20044;-85
2021/06/15 08:14:35;;;;;;;0.20;0.20;;;;;;;;;;5074503;28;20036;-84
2021/06/15 08:17:21;;;;;;;0.20;0.20;;;;;;;;;;5073543;28;20052;-85
2021/06/15 08:19:48;;;;;;;0.20;0.20;;;;;;;;;;5056686;28;20081;-85
2021/06/15 08:22:15;;;;;;;0.20;0.20;;;;;;;;;;5073146;28;20421;-84
2021/06/15 08:25:01;;;;;;;0.20;0.20;;;;;;;;;;5073614;28;20134;-84
2021/06/15 08:27:27;;;;;;;0.20;0.20;;;;;;;;;;5072981;28;20060;-84
2021/06/15 08:29:54;;;;;;;0.73;0.40;;;;;;;;;;5072851;28;20066;-84
2021/06/15 08:32:40;;;;;;;0.20;0.20;;;;;;;;;;5059209;28;20055;-84
2021/06/15 08:35:06;;;;;;;0.20;0.20;;;;;;;;;;5072835;28;20036;-84
2021/06/15 08:37:34;;;;;;;0.20;0.20;;;;;;;;;;5073887;28;20036;-85
2021/06/15 08:40:11;;;;;;;0.20;0.20;;;;;;;;;;5072933;28;20375;-84
2021/06/15 08:42:38;;;;;;;0.20;0.20;;;;;;;;;;5072901;28;20037;-84
2021/06/15 08:45:06;;;;;;;0.20;0.20;;;;;;;;;;5073847;28;20036;-84
2021/06/15 08:47:32;;;;;;;0.20;0.20;;;;;;;;;;5073521;28;20036;-84
2021/06/15 08:49:58;;;;;;;0.20;0.20;;;;;;;;;;5073652;28;20040;-84
2021/06/15 08:52:26;;;;;;;0.20;0.20;;;;;;;;;;5073870;28;20115;-84
2021/06/15 08:54:52;;;;;;;0.20;0.20;;;;;;;;;;5073566;28;20036;-85
2021/06/15 08:57:18;;;;;;;1.55;1.05;;;;;;;;;;5072363;28;20132;-85
2021/06/15 08:59:44;;;;;;;0.20;0.20;;;;;;;;;;5072351;28;20075;-85
2021/06/15 09:02:11;;;;;;;0.15;0.15;;;;;;;;;;5072298;28;20043;-85
2021/06/15 09:04:37;;;;;;;0.20;0.20;;;;;;;;;;5072418;28;20090;-85
2021/06/15 09:07:03;;;;;;;0.20;0.20;;;;;;;;;;5072165;28;20075;-86
2021/06/15 09:09:45;;;;;;;0.20;0.20;;;;;;;;;;5073368;28;20554;-87
2021/06/15 09:12:12;;;;;;;0.20;0.20;;;;;;;;;;5073327;28;20068;-85
2021/06/15 09:14:39;;;;;;;0.20;0.20;;;;;;;;;;5073121;28;20040;-85
2021/06/15 09:17:05;;;;;;;0.47;0.47;;;;;;;;;;5072092;28;20055;-85
2021/06/15 09:19:35;;;;;;;0.45;0.45;;;;;;;;;;5071945;28;20044;-85
2021/06/15 09:22:02;;;;;;;0.20;0.20;;;;;;;;;;5071794;28;20036;-87
2021/06/15 09:24:28;;;;;;;0.10;0.10;;;;;;;;;;5073079;28;20040;-85
2021/06/15 09:26:55;;;;;;;0.20;0.20;;;;;;;;;;5072772;28;20045;-84
2021/06/15 09:29:40;;;;;;;0.20;0.20;;;;;;;;;;5055151;28;20040;-87
2021/06/15 09:32:06;;;;;;;0.20;0.20;;;;;;;;;;5073051;28;20040;-86
2021/06/15 09:34:32;;;;;;;0.20;0.20;;;;;;;;;;5072863;28;20047;-86
2021/06/15 09:36:58;;;;;;;0.20;0.20;;;;;;;;;;5055352;28;20119;-85
2021/06/15 09:39:24;;;;;;;0.15;0.15;;;;;;;;;;5072224;28;20092;-85
2021/06/15 09:41:51;;;;;;;0.17;0.17;;;;;;;;;;5055236;28;20047;-86
2021/06/15 09:44:21;;;;;;;0.20;0.20;;;;;;;;;;5071456;28;20064;-85
2021/06/15 09:46:47;;;;;;;0.20;0.20;;;;;;;;;;5071427;28;20051;-85
2021/06/15 09:49:14;;;;;;;0.20;0.20;;;;;;;;;;5072555;28;20062;-85
2021/06/15 09:51:40;;;;;;;0.20;0.20;;;;;;;;;;5054914;28;20036;-85
2021/06/15 09:54:06;;;;;;;0.20;0.20;;;;;;;;;;5071373;28;20037;-90
2021/06/15 09:56:32;;;;;;;0.20;0.20;;;;;;;;;;5054824;28;20089;-86
2021/06/15 09:58:59;;;;;;;0.20;0.20;;;;;;;;;;5071303;28;20048;-85
2021/06/15 10:01:29;;;;;;;0.20;0.20;;;;;;;;;;5071275;28;20032;-85
2021/06/15 10:04:06;;;;;;;0.20;0.20;;;;;;;;;;5072381;28;20048;-85
2021/06/15 10:06:33;;;;;;;0.17;0.17;;;;;;;;;;5070873;28;20044;-85
2021/06/15 10:09:00;;;;;;;0.20;0.20;;;;;;;;;;5069702;28;20040;-85
2021/06/15 10:11:26;;;;;;;0.20;0.20;;;;;;;;;;5071385;28;20107;-85
2021/06/15 10:13:52;;;;;;;0.20;0.20;;;;;;;;;;5054303;28;20048;-86
2021/06/15 10:16:18;;;;;;;0.20;0.20;;;;;;;;;;5052754;28;20044;-85
2021/06/15 10:18:44;;;;;;;0.20;0.20;;;;;;;;;;5071777;28;20090;-85
2021/06/15 10:21:10;;;;;;;0.10;0.10;;;;;;;;;;5072159;28;20036;-84
2021/06/15 10:23:36;;;;;;;0.20;0.20;;;;;;;;;;5072100;28;20041;-86
2021/06/15 10:26:02;;;;;;;0.10;0.10;;;;;;;;;;5070652;28;20037;-85
2021/06/15 10:28:30;;;;;;;0.20;0.20;;;;;;;;;;5070762;28;20066;-86
2021/06/15 10:31:03;;;;;;;0.20;0.20;;;;;;;;;;5049911;28;20563;-85
2021/06/15 10:33:41;;;;;;;0.20;0.20;;;;;;;;;;5067969;28;20120;-85
2021/06/15 10:36:07;;;;;;;0.13;0.13;;;;;;;;;;5070820;28;20040;-85
2021/06/15 10:38:35;;;;;;;0.10;0.10;;;;;;;;;;5070542;28;20036;-85
2021/06/15 10:41:02;;;;;;;0.10;0.10;;;;;;;;;;5070715;28;20044;-85
2021/06/15 10:43:29;;;;;;;0.20;0.20;;;;;;;;;;5070615;28;20044;-85
2021/06/15 10:45:58;;;;;;;0.20;0.20;;;;;;;;;;5070027;28;20041;-85
2021/06/15 10:48:24;;;;;;;0.10;0.10;;;;;;;;;;5070671;28;20873;-84
2021/06/15 10:50:51;;;;;;;0.13;0.13;;;;;;;;;;5070681;28;20037;-86
2021/06/15 10:53:18;;;;;;;0.10;0.10;;;;;;;;;;5069571;28;20041;-86
2021/06/15 10:55:45;;;;;;;0.10;0.10;;;;;;;;;;5053106;28;20037;-87
2021/06/15 10:58:11;;;;;;;0.10;0.10;;;;;;;;;;5070690;28;20047;-88
2021/06/15 11:00:47;;;;;;;0.20;0.20;;;;;;;;;;5070482;28;20067;-87
2021/06/15 11:03:16;;;;;;;0.20;0.20;;;;;;;;;;5071535;28;20036;-85
2021/06/15 11:05:56;;;;;;;0.10;0.10;;;;;;;;;;5071744;28;20085;-86
2021/06/15 11:08:22;;;;;;;0.20;0.20;;;;;;;;;;5070278;28;20118;-87
2021/06/15 11:10:52;;;;;;;0.20;0.20;;;;;;;;;;5070444;28;20486;-87
2021/06/15 11:13:18;;;;;;;0.15;0.15;;;;;;;;;;5053694;28;20048;-86
2021/06/15 11:16:00;;;;;;;0.20;0.20;;;;;;;;;;5070412;28;20068;-85
2021/06/15 11:18:26;;;;;;;0.20;0.20;;;;;;;;;;5070291;28;20033;-87
2021/06/15 11:20:52;;;;;;;0.20;0.20;;;;;;;;;;5070463;28;20047;-87
2021/06/15 11:23:21;;;;;;;0.20;0.20;;;;;;;;;;5069467;28;20045;-85
2021/06/15 11:25:51;;;;;;;0.20;0.20;;;;;;;;;;5070435;28;20039;-86
2021/06/15 11:28:36;;;;;;;0.10;0.10;;;;;;;;;;5070254;28;20444;-86
2021/06/15 11:31:25;;;;;;;0.10;0.10;;;;;;;;;;5070127;28;20055;-84
2021/06/15 11:34:14;;;;;;;0.10;0.10;;;;;;;;;;5070336;28;20033;-86
2021/06/15 11:36:55;;;;;;;0.20;0.20;;;;;;;;;;5054352;28;20504;-86
2021/06/15 11:39:30;;;;;;;0.20;0.20;;;;;;;;;;5071285;28;20167;-86
2021/06/15 11:42:10;;;;;;;0.10;0.10;;;;;;;;;;5070139;28;20037;-85
2021/06/15 11:44:53;;;;;;;0.32;0.25;;;;;;;;;;5072142;28;20032;-85
2021/06/15 11:47:22;;;;;;;0.20;0.20;;;;;;;;;;5074761;28;20068;-85
2021/06/15 11:50:07;;;;;;;0.20;0.20;;;;;;;;;;5073598;28;20037;-85
2021/06/15 11:52:33;;;;;;;0.10;0.10;;;;;;;;;;5074785;28;20067;-85
2021/06/15 11:54:59;;;;;;;0.20;0.20;;;;;;;;;;5073366;28;20063;-85
2021/06/15 11:57:26;;;;;;;0.10;0.10;;;;;;;;;;5074612;28;20036;-85
2021/06/15 11:59:52;;;;;;;0.10;0.10;;;;;;;;;;5056925;28;20036;-85
2021/06/15 12:02:18;;;;;;;0.10;0.10;;;;;;;;;;5073414;28;20048;-89
2021/06/15 12:05:04;;;;;;;0.10;0.10;;;;;;;;;;5057198;28;20076;-91
2021/06/15 12:07:31;;;;;;;0.20;0.20;;;;;;;;;;5073217;28;20043;-85
2021/06/15 12:10:15;;;;;;;0.10;0.10;;;;;;;;;;5056953;28;20052;-86
2021/06/15 12:12:55;;;;;;;0.10;0.10;;;;;;;;;;5074597;28;20111;-86
2021/06/15 12:15:24;;;;;;;0.10;0.10;;;;;;;;;;5056674;28;20076;-86
2021/06/15 12:17:50;;;;;;;0.10;0.10;;;;;;;;;;5074320;28;20115;-86
2021/06/15 12:20:23;;;;;;;0.20;0.20;;;;;;;;;;5074453;28;20167;-87
2021/06/15 12:22:49;;;;;;;0.10;0.10;;;;;;;;;;5074306;28;20039;-86
2021/06/15 12:25:15;;;;;;;0.10;0.10;;;;;;;;;;5074393;28;20032;-86
2021/06/15 12:27:41;;;;;;;0.10;0.10;;;;;;;;;;5074184;28;20090;-86
2021/06/15 12:30:07;;;;;;;0.20;0.20;;;;;;;;;;5072953;28;20057;-86
2021/06/15 12:32:45;;;;;;;0.20;0.20;;;;;;;;;;5072956;28;20040;-86
2021/06/15 12:35:18;;;;;;;0.10;0.10;;;;;;;;;;5072290;28;20067;-86
2021/06/15 12:37:44;;;;;;;0.10;0.10;;;;;;;;;;5072906;28;20041;-86
2021/06/15 12:40:11;;;;;;;0.20;0.20;;;;;;;;;;5072880;28;20478;-86
2021/06/15 12:42:37;;;;;;;0.10;0.10;;;;;;;;;;5072753;28;20089;-85
2021/06/15 12:45:03;;;;;;;0.10;0.10;;;;;;;;;;5072646;28;20045;-85
2021/06/15 12:47:29;;;;;;;0.10;0.10;;;;;;;;;;5072749;28;20115;-85
2021/06/15 12:49:56;;;;;;;0.10;0.10;;;;;;;;;;5072729;28;20036;-85
2021/06/15 12:52:31;;;;;;;0.10;0.10;;;;;;;;;;5072730;28;20497;-85
2021/06/15 12:55:06;;;;;;;0.20;0.20;;;;;;;;;;5072719;28;20436;-85
2021/06/15 12:57:32;;;;;;;0.10;0.10;;;;;;;;;;5071982;28;20032;-85
2021/06/15 12:59:59;;;;;;;0.10;0.10;;;;;;;;;;5073719;28;20098;-86
2021/06/15 13:02:25;;;;;;;0.10;0.10;;;;;;;;;;5072599;28;20040;-85
2021/06/15 13:04:53;;;;;;;0.20;0.20;;;;;;;;;;5073559;28;20032;-85
2021/06/15 13:07:19;;;;;;;0.10;0.10;;;;;;;;;;5072442;28;20116;-89
2021/06/15 13:09:45;;;;;;;0.20;0.20;;;;;;;;;;5072508;28;20044;-85
2021/06/15 13:12:16;;;;;;;0.10;0.10;;;;;;;;;;5073367;28;20040;-85
2021/06/15 13:14:43;;;;;;;0.10;0.10;;;;;;;;;;5055592;28;20040;-86
2021/06/15 13:17:13;;;;;;;0.10;0.10;;;;;;;;;;5072074;28;20067;-85
2021/06/15 13:19:40;;;;;;;0.10;0.10;;;;;;;;;;5072087;28;20040;-86
2021/06/15 13:22:06;;;;;;;0.20;0.20;;;;;;;;;;5072113;28;20032;-85
2021/06/15 13:24:42;;;;;;;0.10;0.10;;;;;;;;;;5071829;28;20033;-84
2021/06/15 13:27:29;;;;;;;0.10;0.10;;;;;;;;;;5055742;28;20045;-91
2021/06/15 13:29:55;;;;;;;0.10;0.10;;;;;;;;;;5071652;28;20084;-84
2021/06/15 13:32:26;;;;;;;0.10;0.10;;;;;;;;;;5071808;28;20036;-85
2021/06/15 13:34:59;;;;;;;2.50;0.97;;;;;;;;;;5071728;28;20040;-85
2021/06/15 13:37:26;;;;;;;0.15;0.15;;;;;;;;;;5072815;28;20114;-85
2021/06/15 13:39:52;;;;;;;0.10;0.10;;;;;;;;;;5072848;28;20094;-85
2021/06/15 13:42:28;;;;;;;0.10;0.10;;;;;;;;;;5055344;28;20037;-87
2021/06/15 13:45:02;;;;;;;0.10;0.10;;;;;;;;;;5071507;28;20036;-85
2021/06/15 13:47:28;;;;;;;0.10;0.10;;;;;;;;;;5054711;28;20053;-85
2021/06/15 13:49:54;;;;;;;0.10;0.10;;;;;;;;;;5054863;28;20537;-85
2021/06/15 13:52:20;;;;;;;0.10;0.10;;;;;;;;;;5071567;28;20047;-85
2021/06/15 13:54:46;;;;;;;0.10;0.10;;;;;;;;;;5072677;28;20060;-85
2021/06/15 13:57:12;;;;;;;0.10;0.10;;;;;;;;;;5072418;28;20074;-85
2021/06/15 13:59:38;;;;;;;0.10;0.10;;;;;;;;;;5072428;28;20115;-85
2021/06/15 14:02:04;;;;;;;0.20;0.20;;;;;;;;;;5071181;28;20044;-86
2021/06/15 14:04:30;;;;;;;0.20;0.20;;;;;;;;;;5072338;28;20036;-85
2021/06/15 14:06:56;;;;;;;0.10;0.10;;;;;;;;;;5072301;28;20039;-85
2021/06/15 14:09:22;;;;;;;0.20;0.20;;;;;;;;;;5071518;28;20041;-85
2021/06/15 14:11:48;;;;;;;0.10;0.10;;;;;;;;;;5072555;28;20041;-85
2021/06/15 14:14:14;;;;;;;0.10;0.10;;;;;;;;;;5054241;28;20448;-85
2021/06/15 14:16:40;;;;;;;0.15;0.15;;;;;;;;;;5072038;28;20072;-85
2021/06/15 14:19:06;;;;;;;0.10;0.10;;;;;;;;;;5071041;28;20044;-85
2021/06/15 14:21:37;;;;;;;0.10;0.10;;;;;;;;;;5072176;28;20040;-85
2021/06/15 14:24:09;;;;;;;0.10;0.10;;;;;;;;;;5072119;28;20040;-85
2021/06/15 14:26:35;;;;;;;0.10;0.10;;;;;;;;;;5070790;28;20033;-85
2021/06/15 14:29:01;;;;;;;0.20;0.20;;;;;;;;;;5070803;28;20043;-85
2021/06/15 14:31:27;;;;;;;0.20;0.20;;;;;;;;;;5053992;28;20123;-85
2021/06/15 14:33:53;;;;;;;0.10;0.10;;;;;;;;;;5070859;28;20041;-85
2021/06/15 14:36:21;;;;;;;0.20;0.20;;;;;;;;;;5070933;28;20090;-85
2021/06/15 14:38:50;;;;;;;0.10;0.10;;;;;;;;;;5071998;28;20036;-85
2021/06/15 14:41:16;;;;;;;0.10;0.10;;;;;;;;;;5054440;28;20068;-85
2021/06/15 14:43:42;;;;;;;0.10;0.10;;;;;;;;;;5070739;28;20603;-86
2021/06/15 14:46:08;;;;;;;0.10;0.10;;;;;;;;;;5070647;28;20215;-85
2021/06/15 14:48:34;;;;;;;0.20;0.20;;;;;;;;;;5070641;28;20130;-85
2021/06/15 14:51:00;;;;;;;0.10;0.10;;;;;;;;;;5070725;28;20481;-86
2021/06/15 14:53:26;;;;;;;0.10;0.10;;;;;;;;;;5054002;28;20142;-85
2021/06/15 14:55:52;;;;;;;0.20;0.20;;;;;;;;;;5071941;28;20104;-85
2021/06/15 14:58:18;;;;;;;0.20;0.20;;;;;;;;;;5070505;28;20064;-86